Flight Track Log - Related Links

Times and Time Zones

All times are in EDT time to prevent confusion due to time zone crossing. See the EJA646 flight status page for this flight to view local times or setup timezone preferences in your user account.

Time Position Orientation Groundspeed Altitude Reporting Facility
EDT Latitude Longitude Course Direction KTS MPH feet Rate Location/Type
Wed 06:53:05 PM 35.5636 -88.8614 131° Southeast 364 419 5,500  Level Memphis Center
Wed 06:54:05 PM 35.5608 -88.8131 94° East 208 239 8,700 3,150 Climbing Memphis Center
Wed 06:55:05 PM 35.5578 -88.7339 93° East 208 239 11,800 3,100 Climbing Memphis Center
Wed 06:56:05 PM 35.5608 -88.6472 87° East 224 258 14,900 3,200 Climbing Memphis Center
Wed 06:57:05 PM 35.5575 -88.5578 93° East 245 282 18,200 3,300 Climbing Memphis Center
Wed 06:58:00 PM 35.6441 -88.1820 131° Southeast  Level Estimated
Wed 06:58:05 PM 35.5644 -88.4708 84° East 251 289 21,500  Level Memphis Center
Wed 06:59:05 PM 35.5756 -88.3711 82° East 270 311 23,000 750 Climbing Memphis Center
Wed 07:00:05 PM 35.6006 -88.2481 76° East 316 364 23,000  Level Memphis Center
Wed 07:01:05 PM 35.6253 -88.1144 77° East 369 425 23,000  Level Memphis Center
Wed 07:02:05 PM 35.6478 -87.9761 79° East 396 456 23,000 850 Level Memphis Center
Wed 07:03:05 PM 35.6742 -87.8397 77° East 407 468 24,700 1,000 Climbing Memphis Center
Wed 07:04:05 PM 35.6964 -87.7011 79° East 407 468 25,000 150 Climbing Memphis Center
Wed 07:05:05 PM 35.7017 -87.5578 87° East 417 480 25,000  Level Memphis Center
Wed 07:06:05 PM 35.7086 -87.4169 86° East 411 473 25,000  Level Memphis Center
Wed 07:07:05 PM 35.7139 -87.2839 87° East 401 461 25,000  Level Memphis Center
Wed 07:08:05 PM 35.7206 -87.1403 87° East 387 445 25,000  Level Memphis Center
Wed 07:09:05 PM 35.7253 -87.0047 88° East 387 445 25,000  Level Memphis Center
Wed 07:10:05 PM 35.7300 -86.8689 88° East 392 451 25,000  Level Memphis Center
Wed 07:11:05 PM 35.7344 -86.7331 88° East 392 451 25,000  Level Memphis Center
Wed 07:12:06 PM 35.7389 -86.6000 88° East 392 451 25,000  Level Memphis Center
Wed 07:13:05 PM 35.7450 -86.4642 87° East 392 451 25,000 -353 Level Memphis Center
Wed 07:14:05 PM 35.7511 -86.3308 87° East 392 451 24,300 -1,190 Descending Memphis Center
Wed 07:15:06 PM 35.7547 -86.1822 88° East 406 467 22,600 -1,636 Descending Memphis Center
Wed 07:16:06 PM 35.7600 -86.0361 87° East 426 490 21,000 -1,109 Descending Memphis Center
Wed 07:17:05 PM 35.7656 -85.8978 87° East 421 484 20,400 -1,500 Descending Memphis Center
Wed 07:18:06 PM 35.7692 -85.7697 88° East 397 457 18,000 -2,500 Descending Memphis Center
Wed 07:20:29 PM 35.7764 -85.5003 88° East 329 379 11,900 -2,039 Descending Atlanta Center
Wed 07:21:29 PM 35.7797 -85.3850 88° East 321 369 11,100 -400 Descending Atlanta Center
Wed 07:22:29 PM 35.7831 -85.2622 88° East 334 384 11,100  Level Atlanta Center
Wed 07:23:29 PM 35.7864 -85.1394 88° East 347 399 11,100  Level Atlanta Center
Wed 07:24:29 PM 35.7894 -85.0167 88° East 352 405 11,100  Level Atlanta Center
Wed 07:25:29 PM 35.7925 -84.8939 88° East 352 405 11,100  Level Atlanta Center
Wed 07:26:29 PM 35.7953 -84.7811 88° East 357 411 11,100  Level Atlanta Center
Wed 07:27:29 PM 35.7981 -84.6608 88° East 357 411 11,100 -350 Level Atlanta Center
Wed 07:28:29 PM 35.8006 -84.5431 88° East 357 411 10,400 -1,100 Descending Atlanta Center
Wed 07:29:29 PM 35.7761 -84.4483 108° East 309 356 8,900 -1,900 Descending Atlanta Center
Wed 07:30:29 PM 35.7681 -84.3511 96° East 304 350 6,600 -2,350 Descending Atlanta Center
Wed 07:31:29 PM 35.7661 -84.2511 91° East 293 337 4,200 -1,850 Descending Atlanta Center
Wed 07:32:29 PM 35.7661 -84.1589 90° East 281 323 2,900 -900 Descending Atlanta Center
Wed 07:33:29 PM 35.7683 -84.0797 88° East 257 296 2,400 -500 Descending Atlanta Center
Wed 07:35:00 PM 35.8000 -83.9833 90° East  Level FlightAware Approximate
Wed 07:42:00 PM 35.8110 -83.9940 90° East  Level Estimated
Wed 07:43:00 PM 35.8110 -83.9940 90° East  Level Estimated

Login

Don't have an account? Register now (free) for customized features, flight alerts, and more!